sensor_id;sensor_type;location;lat;lon;timestamp;P1;durP1;ratioP1;P2;durP2;ratioP2
19877;SDS011;10101;52.204;9.910;2022-08-18T00:01:54;8.83;;;4.87;;
19877;SDS011;10101;52.204;9.910;2022-08-18T00:04:27;7.33;;;4.93;;
19877;SDS011;10101;52.204;9.910;2022-08-18T00:06:54;6.03;;;4.33;;
19877;SDS011;10101;52.204;9.910;2022-08-18T00:09:20;8.80;;;4.83;;
19877;SDS011;10101;52.204;9.910;2022-08-18T00:11:48;6.00;;;5.40;;
19877;SDS011;10101;52.204;9.910;2022-08-18T00:14:16;7.97;;;5.30;;
19877;SDS011;10101;52.204;9.910;2022-08-18T00:16:44;6.73;;;5.30;;
19877;SDS011;10101;52.204;9.910;2022-08-18T00:19:11;6.73;;;5.63;;
19877;SDS011;10101;52.204;9.910;2022-08-18T00:21:38;6.67;;;5.50;;
19877;SDS011;10101;52.204;9.910;2022-08-18T00:24:05;8.43;;;5.83;;
19877;SDS011;10101;52.204;9.910;2022-08-18T00:26:32;7.70;;;5.50;;
19877;SDS011;10101;52.204;9.910;2022-08-18T00:29:00;9.43;;;6.03;;
19877;SDS011;10101;52.204;9.910;2022-08-18T00:31:27;6.83;;;5.90;;
19877;SDS011;10101;52.204;9.910;2022-08-18T00:33:54;7.93;;;5.83;;
19877;SDS011;10101;52.204;9.910;2022-08-18T00:36:21;6.93;;;5.50;;
19877;SDS011;10101;52.204;9.910;2022-08-18T00:38:47;6.50;;;5.80;;
19877;SDS011;10101;52.204;9.910;2022-08-18T00:41:14;6.33;;;4.93;;
19877;SDS011;10101;52.204;9.910;2022-08-18T00:43:42;7.27;;;6.03;;
19877;SDS011;10101;52.204;9.910;2022-08-18T00:46:13;7.57;;;6.57;;
19877;SDS011;10101;52.204;9.910;2022-08-18T00:48:43;7.63;;;6.40;;
19877;SDS011;10101;52.204;9.910;2022-08-18T00:51:10;8.90;;;6.40;;
19877;SDS011;10101;52.204;9.910;2022-08-18T00:53:40;7.17;;;5.83;;
19877;SDS011;10101;52.204;9.910;2022-08-18T00:56:12;10.13;;;6.70;;
19877;SDS011;10101;52.204;9.910;2022-08-18T00:58:42;9.37;;;7.17;;
19877;SDS011;10101;52.204;9.910;2022-08-18T01:01:16;8.70;;;7.57;;
19877;SDS011;10101;52.204;9.910;2022-08-18T01:03:47;9.17;;;7.27;;
19877;SDS011;10101;52.204;9.910;2022-08-18T01:06:20;8.70;;;7.03;;
19877;SDS011;10101;52.204;9.910;2022-08-18T01:08:52;7.77;;;6.50;;
19877;SDS011;10101;52.204;9.910;2022-08-18T01:11:20;10.53;;;8.03;;
19877;SDS011;10101;52.204;9.910;2022-08-18T01:13:46;10.63;;;8.73;;
19877;SDS011;10101;52.204;9.910;2022-08-18T01:16:13;15.07;;;9.77;;
19877;SDS011;10101;52.204;9.910;2022-08-18T01:18:59;11.50;;;9.70;;
19877;SDS011;10101;52.204;9.910;2022-08-18T01:21:45;13.87;;;10.63;;
19877;SDS011;10101;52.204;9.910;2022-08-18T01:24:17;15.70;;;10.00;;
19877;SDS011;10101;52.204;9.910;2022-08-18T01:26:45;14.57;;;10.73;;
19877;SDS011;10101;52.204;9.910;2022-08-18T01:29:15;17.33;;;11.77;;
19877;SDS011;10101;52.204;9.910;2022-08-18T01:31:45;15.97;;;11.43;;
19877;SDS011;10101;52.204;9.910;2022-08-18T01:34:14;13.67;;;10.80;;
19877;SDS011;10101;52.204;9.910;2022-08-18T01:36:45;13.97;;;11.53;;
19877;SDS011;10101;52.204;9.910;2022-08-18T01:39:18;16.50;;;12.50;;
19877;SDS011;10101;52.204;9.910;2022-08-18T01:41:45;16.53;;;12.10;;
19877;SDS011;10101;52.204;9.910;2022-08-18T01:44:12;17.63;;;13.43;;
19877;SDS011;10101;52.204;9.910;2022-08-18T01:46:40;16.10;;;12.90;;
19877;SDS011;10101;52.204;9.910;2022-08-18T01:49:07;15.13;;;12.70;;
19877;SDS011;10101;52.204;9.910;2022-08-18T01:51:35;18.27;;;12.60;;
19877;SDS011;10101;52.204;9.910;2022-08-18T01:54:05;14.83;;;12.93;;
19877;SDS011;10101;52.204;9.910;2022-08-18T01:56:35;15.67;;;12.87;;
19877;SDS011;10101;52.204;9.910;2022-08-18T01:59:02;20.87;;;13.73;;
19877;SDS011;10101;52.204;9.910;2022-08-18T02:01:30;16.90;;;13.23;;
19877;SDS011;10101;52.204;9.910;2022-08-18T02:03:57;17.17;;;13.37;;
19877;SDS011;10101;52.204;9.910;2022-08-18T02:06:25;20.17;;;13.80;;
19877;SDS011;10101;52.204;9.910;2022-08-18T02:08:52;19.47;;;14.73;;
19877;SDS011;10101;52.204;9.910;2022-08-18T02:11:18;16.73;;;14.10;;
19877;SDS011;10101;52.204;9.910;2022-08-18T02:13:47;13.33;;;10.97;;
19877;SDS011;10101;52.204;9.910;2022-08-18T02:16:13;20.20;;;15.87;;
19877;SDS011;10101;52.204;9.910;2022-08-18T02:18:41;19.77;;;15.87;;
19877;SDS011;10101;52.204;9.910;2022-08-18T02:21:09;24.43;;;17.27;;
19877;SDS011;10101;52.204;9.910;2022-08-18T02:23:37;22.60;;;16.30;;
19877;SDS011;10101;52.204;9.910;2022-08-18T02:26:04;24.03;;;17.73;;
19877;SDS011;10101;52.204;9.910;2022-08-18T02:28:32;26.57;;;19.63;;
19877;SDS011;10101;52.204;9.910;2022-08-18T02:31:04;21.60;;;17.87;;
19877;SDS011;10101;52.204;9.910;2022-08-18T02:33:31;29.30;;;21.17;;
19877;SDS011;10101;52.204;9.910;2022-08-18T02:35:59;30.43;;;23.17;;
19877;SDS011;10101;52.204;9.910;2022-08-18T02:38:26;28.30;;;21.60;;
19877;SDS011;10101;52.204;9.910;2022-08-18T02:40:53;31.83;;;22.63;;
19877;SDS011;10101;52.204;9.910;2022-08-18T02:43:21;29.73;;;22.17;;
19877;SDS011;10101;52.204;9.910;2022-08-18T02:45:48;34.73;;;24.73;;
19877;SDS011;10101;52.204;9.910;2022-08-18T02:48:16;31.53;;;24.63;;
19877;SDS011;10101;52.204;9.910;2022-08-18T02:50:45;35.03;;;25.17;;
19877;SDS011;10101;52.204;9.910;2022-08-18T02:53:12;34.10;;;24.83;;
19877;SDS011;10101;52.204;9.910;2022-08-18T02:55:45;35.57;;;25.77;;
19877;SDS011;10101;52.204;9.910;2022-08-18T02:58:12;35.23;;;25.57;;
19877;SDS011;10101;52.204;9.910;2022-08-18T03:00:39;34.10;;;25.50;;
19877;SDS011;10101;52.204;9.910;2022-08-18T03:03:06;34.90;;;25.83;;
19877;SDS011;10101;52.204;9.910;2022-08-18T03:05:35;35.83;;;26.17;;
19877;SDS011;10101;52.204;9.910;2022-08-18T03:08:02;35.73;;;25.57;;
19877;SDS011;10101;52.204;9.910;2022-08-18T03:10:29;36.20;;;26.40;;
19877;SDS011;10101;52.204;9.910;2022-08-18T03:12:56;35.70;;;25.60;;
19877;SDS011;10101;52.204;9.910;2022-08-18T03:15:23;35.40;;;27.47;;
19877;SDS011;10101;52.204;9.910;2022-08-18T03:17:50;39.23;;;26.73;;
19877;SDS011;10101;52.204;9.910;2022-08-18T03:20:17;36.90;;;28.00;;
19877;SDS011;10101;52.204;9.910;2022-08-18T03:22:45;38.53;;;27.90;;
19877;SDS011;10101;52.204;9.910;2022-08-18T03:25:12;36.90;;;27.67;;
19877;SDS011;10101;52.204;9.910;2022-08-18T03:27:39;40.93;;;28.37;;
19877;SDS011;10101;52.204;9.910;2022-08-18T03:30:06;40.37;;;28.67;;
19877;SDS011;10101;52.204;9.910;2022-08-18T03:32:33;39.00;;;28.37;;
19877;SDS011;10101;52.204;9.910;2022-08-18T03:35:00;36.77;;;28.93;;
19877;SDS011;10101;52.204;9.910;2022-08-18T03:37:27;40.73;;;30.00;;
19877;SDS011;10101;52.204;9.910;2022-08-18T03:39:55;38.53;;;29.23;;
19877;SDS011;10101;52.204;9.910;2022-08-18T03:42:21;40.93;;;28.43;;
19877;SDS011;10101;52.204;9.910;2022-08-18T03:44:48;39.37;;;29.73;;
19877;SDS011;10101;52.204;9.910;2022-08-18T03:47:16;43.47;;;30.47;;
19877;SDS011;10101;52.204;9.910;2022-08-18T03:49:43;43.23;;;29.77;;
19877;SDS011;10101;52.204;9.910;2022-08-18T03:52:10;39.70;;;30.00;;
19877;SDS011;10101;52.204;9.910;2022-08-18T03:54:36;42.00;;;30.23;;
19877;SDS011;10101;52.204;9.910;2022-08-18T03:57:07;40.83;;;29.20;;
19877;SDS011;10101;52.204;9.910;2022-08-18T03:59:35;39.27;;;28.20;;
19877;SDS011;10101;52.204;9.910;2022-08-18T04:02:03;43.07;;;29.03;;
19877;SDS011;10101;52.204;9.910;2022-08-18T04:04:30;39.33;;;29.10;;
19877;SDS011;10101;52.204;9.910;2022-08-18T04:06:59;35.00;;;25.90;;
19877;SDS011;10101;52.204;9.910;2022-08-18T04:09:29;36.93;;;26.20;;
19877;SDS011;10101;52.204;9.910;2022-08-18T04:11:57;38.93;;;28.63;;
19877;SDS011;10101;52.204;9.910;2022-08-18T04:14:29;39.50;;;28.90;;
19877;SDS011;10101;52.204;9.910;2022-08-18T04:16:56;39.03;;;29.23;;
19877;SDS011;10101;52.204;9.910;2022-08-18T04:19:23;40.20;;;28.20;;
19877;SDS011;10101;52.204;9.910;2022-08-18T04:21:51;39.93;;;28.53;;
19877;SDS011;10101;52.204;9.910;2022-08-18T04:24:18;33.80;;;24.47;;
19877;SDS011;10101;52.204;9.910;2022-08-18T04:26:46;42.33;;;28.00;;
19877;SDS011;10101;52.204;9.910;2022-08-18T04:29:14;41.20;;;29.57;;
19877;SDS011;10101;52.204;9.910;2022-08-18T04:31:44;39.43;;;27.17;;
19877;SDS011;10101;52.204;9.910;2022-08-18T04:34:10;39.10;;;27.50;;
19877;SDS011;10101;52.204;9.910;2022-08-18T04:36:38;35.47;;;26.97;;
19877;SDS011;10101;52.204;9.910;2022-08-18T04:39:07;40.07;;;28.70;;
19877;SDS011;10101;52.204;9.910;2022-08-18T04:41:36;39.93;;;30.03;;
19877;SDS011;10101;52.204;9.910;2022-08-18T04:44:04;41.07;;;30.23;;
19877;SDS011;10101;52.204;9.910;2022-08-18T04:46:37;43.87;;;30.53;;
19877;SDS011;10101;52.204;9.910;2022-08-18T04:49:08;39.40;;;29.70;;
19877;SDS011;10101;52.204;9.910;2022-08-18T04:51:38;45.67;;;31.87;;
19877;SDS011;10101;52.204;9.910;2022-08-18T04:54:07;37.97;;;28.80;;
19877;SDS011;10101;52.204;9.910;2022-08-18T04:56:36;44.70;;;31.53;;
19877;SDS011;10101;52.204;9.910;2022-08-18T04:59:06;42.70;;;31.57;;
19877;SDS011;10101;52.204;9.910;2022-08-18T05:01:35;43.60;;;31.70;;
19877;SDS011;10101;52.204;9.910;2022-08-18T05:04:04;46.03;;;32.80;;
19877;SDS011;10101;52.204;9.910;2022-08-18T05:06:33;44.93;;;32.13;;
19877;SDS011;10101;52.204;9.910;2022-08-18T05:09:01;43.30;;;33.23;;
19877;SDS011;10101;52.204;9.910;2022-08-18T05:11:30;48.10;;;32.83;;
19877;SDS011;10101;52.204;9.910;2022-08-18T05:13:59;48.23;;;33.83;;
19877;SDS011;10101;52.204;9.910;2022-08-18T05:16:27;50.27;;;34.70;;
19877;SDS011;10101;52.204;9.910;2022-08-18T05:18:56;47.37;;;34.30;;
19877;SDS011;10101;52.204;9.910;2022-08-18T05:21:23;47.23;;;33.63;;
19877;SDS011;10101;52.204;9.910;2022-08-18T05:23:52;46.73;;;33.23;;
19877;SDS011;10101;52.204;9.910;2022-08-18T05:26:18;47.73;;;33.53;;
19877;SDS011;10101;52.204;9.910;2022-08-18T05:28:45;48.77;;;34.57;;
19877;SDS011;10101;52.204;9.910;2022-08-18T05:31:13;48.50;;;35.07;;
19877;SDS011;10101;52.204;9.910;2022-08-18T05:33:41;45.10;;;33.20;;
19877;SDS011;10101;52.204;9.910;2022-08-18T05:36:10;49.50;;;34.10;;
19877;SDS011;10101;52.204;9.910;2022-08-18T05:38:49;44.73;;;32.37;;
19877;SDS011;10101;52.204;9.910;2022-08-18T05:41:24;47.97;;;32.07;;
19877;SDS011;10101;52.204;9.910;2022-08-18T05:43:57;43.57;;;31.70;;
19877;SDS011;10101;52.204;9.910;2022-08-18T05:46:25;46.10;;;32.67;;
19877;SDS011;10101;52.204;9.910;2022-08-18T05:48:59;47.80;;;32.87;;
19877;SDS011;10101;52.204;9.910;2022-08-18T05:51:27;40.40;;;31.73;;
19877;SDS011;10101;52.204;9.910;2022-08-18T05:54:01;41.00;;;30.67;;
19877;SDS011;10101;52.204;9.910;2022-08-18T05:56:48;43.70;;;31.43;;
19877;SDS011;10101;52.204;9.910;2022-08-18T05:59:26;45.13;;;31.80;;
19877;SDS011;10101;52.204;9.910;2022-08-18T06:01:58;45.30;;;31.97;;
19877;SDS011;10101;52.204;9.910;2022-08-18T06:04:36;42.37;;;31.77;;
19877;SDS011;10101;52.204;9.910;2022-08-18T06:07:09;42.57;;;32.70;;
19877;SDS011;10101;52.204;9.910;2022-08-18T06:09:41;40.67;;;29.77;;
19877;SDS011;10101;52.204;9.910;2022-08-18T06:12:15;40.37;;;29.53;;
19877;SDS011;10101;52.204;9.910;2022-08-18T06:14:47;40.33;;;29.40;;
19877;SDS011;10101;52.204;9.910;2022-08-18T06:17:18;40.80;;;29.80;;
19877;SDS011;10101;52.204;9.910;2022-08-18T06:20:06;37.57;;;27.40;;
19877;SDS011;10101;52.204;9.910;2022-08-18T06:22:42;39.63;;;29.03;;
19877;SDS011;10101;52.204;9.910;2022-08-18T06:25:23;40.37;;;28.00;;
19877;SDS011;10101;52.204;9.910;2022-08-18T06:27:54;36.60;;;28.13;;
19877;SDS011;10101;52.204;9.910;2022-08-18T06:30:29;42.00;;;29.13;;
19877;SDS011;10101;52.204;9.910;2022-08-18T06:33:09;43.47;;;30.07;;
19877;SDS011;10101;52.204;9.910;2022-08-18T06:35:40;40.20;;;29.00;;
19877;SDS011;10101;52.204;9.910;2022-08-18T06:38:20;38.83;;;29.13;;
19877;SDS011;10101;52.204;9.910;2022-08-18T06:41:10;40.80;;;29.90;;
19877;SDS011;10101;52.204;9.910;2022-08-18T06:43:41;44.40;;;30.37;;
19877;SDS011;10101;52.204;9.910;2022-08-18T06:46:17;41.93;;;30.20;;
19877;SDS011;10101;52.204;9.910;2022-08-18T06:48:49;40.53;;;29.03;;
19877;SDS011;10101;52.204;9.910;2022-08-18T06:51:19;42.37;;;29.63;;
19877;SDS011;10101;52.204;9.910;2022-08-18T06:53:48;38.60;;;30.30;;
19877;SDS011;10101;52.204;9.910;2022-08-18T06:56:21;40.00;;;28.93;;
19877;SDS011;10101;52.204;9.910;2022-08-18T06:58:50;37.23;;;28.93;;
19877;SDS011;10101;52.204;9.910;2022-08-18T07:01:19;40.50;;;29.63;;
19877;SDS011;10101;52.204;9.910;2022-08-18T07:03:49;35.57;;;27.37;;
19877;SDS011;10101;52.204;9.910;2022-08-18T07:06:24;38.53;;;28.23;;
19877;SDS011;10101;52.204;9.910;2022-08-18T07:08:55;33.23;;;25.40;;
19877;SDS011;10101;52.204;9.910;2022-08-18T07:11:58;34.57;;;26.47;;
19877;SDS011;10101;52.204;9.910;2022-08-18T07:14:28;35.40;;;26.57;;
19877;SDS011;10101;52.204;9.910;2022-08-18T07:17:08;30.97;;;25.40;;
19877;SDS011;10101;52.204;9.910;2022-08-18T07:19:36;34.23;;;26.47;;
19877;SDS011;10101;52.204;9.910;2022-08-18T07:22:05;32.90;;;25.90;;
19877;SDS011;10101;52.204;9.910;2022-08-18T07:24:37;32.10;;;24.70;;
19877;SDS011;10101;52.204;9.910;2022-08-18T07:27:08;31.50;;;23.67;;
19877;SDS011;10101;52.204;9.910;2022-08-18T07:29:37;32.07;;;24.30;;
19877;SDS011;10101;52.204;9.910;2022-08-18T07:32:08;32.20;;;23.07;;
19877;SDS011;10101;52.204;9.910;2022-08-18T07:34:41;31.10;;;22.83;;
19877;SDS011;10101;52.204;9.910;2022-08-18T07:37:13;28.80;;;22.77;;
19877;SDS011;10101;52.204;9.910;2022-08-18T07:39:46;27.90;;;22.92;;
19877;SDS011;10101;52.204;9.910;2022-08-18T07:42:20;28.03;;;21.80;;
19877;SDS011;10101;52.204;9.910;2022-08-18T07:44:57;26.57;;;21.50;;
19877;SDS011;10101;52.204;9.910;2022-08-18T07:47:28;28.87;;;22.53;;
19877;SDS011;10101;52.204;9.910;2022-08-18T07:50:00;31.42;;;21.85;;
19877;SDS011;10101;52.204;9.910;2022-08-18T07:52:28;31.13;;;23.53;;
19877;SDS011;10101;52.204;9.910;2022-08-18T07:55:00;29.88;;;23.30;;
19877;SDS011;10101;52.204;9.910;2022-08-18T07:57:37;27.92;;;22.13;;
19877;SDS011;10101;52.204;9.910;2022-08-18T08:00:17;29.85;;;23.75;;
19877;SDS011;10101;52.204;9.910;2022-08-18T08:02:51;27.40;;;21.57;;
19877;SDS011;10101;52.204;9.910;2022-08-18T08:05:33;27.33;;;22.17;;
19877;SDS011;10101;52.204;9.910;2022-08-18T08:08:08;26.75;;;22.30;;
19877;SDS011;10101;52.204;9.910;2022-08-18T08:10:47;25.88;;;21.35;;
19877;SDS011;10101;52.204;9.910;2022-08-18T08:13:30;26.92;;;20.30;;
19877;SDS011;10101;52.204;9.910;2022-08-18T08:16:09;29.40;;;22.15;;
19877;SDS011;10101;52.204;9.910;2022-08-18T08:18:45;26.88;;;20.33;;
19877;SDS011;10101;52.204;9.910;2022-08-18T08:21:22;23.38;;;19.27;;
19877;SDS011;10101;52.204;9.910;2022-08-18T08:23:54;23.95;;;19.50;;
19877;SDS011;10101;52.204;9.910;2022-08-18T08:26:44;24.98;;;19.63;;
19877;SDS011;10101;52.204;9.910;2022-08-18T08:29:19;25.65;;;19.92;;
19877;SDS011;10101;52.204;9.910;2022-08-18T08:31:56;24.48;;;19.77;;
19877;SDS011;10101;52.204;9.910;2022-08-18T08:34:30;24.10;;;18.80;;
19877;SDS011;10101;52.204;9.910;2022-08-18T08:37:05;22.23;;;18.47;;
19877;SDS011;10101;52.204;9.910;2022-08-18T08:39:35;26.77;;;22.00;;
19877;SDS011;10101;52.204;9.910;2022-08-18T08:42:10;27.42;;;22.70;;
19877;SDS011;10101;52.204;9.910;2022-08-18T08:44:42;29.52;;;24.08;;
19877;SDS011;10101;52.204;9.910;2022-08-18T08:47:13;31.65;;;24.45;;
19877;SDS011;10101;52.204;9.910;2022-08-18T08:49:46;31.70;;;24.17;;
19877;SDS011;10101;52.204;9.910;2022-08-18T08:52:18;32.33;;;25.52;;
19877;SDS011;10101;52.204;9.910;2022-08-18T08:54:49;34.33;;;25.63;;
19877;SDS011;10101;52.204;9.910;2022-08-18T08:57:21;33.05;;;25.17;;
19877;SDS011;10101;52.204;9.910;2022-08-18T08:59:52;30.98;;;24.27;;
19877;SDS011;10101;52.204;9.910;2022-08-18T09:02:24;30.58;;;23.98;;
19877;SDS011;10101;52.204;9.910;2022-08-18T09:05:00;31.55;;;22.77;;
19877;SDS011;10101;52.204;9.910;2022-08-18T09:07:37;32.28;;;24.02;;
19877;SDS011;10101;52.204;9.910;2022-08-18T09:10:23;31.17;;;23.27;;
19877;SDS011;10101;52.204;9.910;2022-08-18T09:13:15;27.15;;;21.67;;
19877;SDS011;10101;52.204;9.910;2022-08-18T09:16:03;27.98;;;22.38;;
19877;SDS011;10101;52.204;9.910;2022-08-18T09:18:46;31.02;;;24.15;;
19877;SDS011;10101;52.204;9.910;2022-08-18T09:21:29;29.77;;;22.33;;
19877;SDS011;10101;52.204;9.910;2022-08-18T09:24:07;28.67;;;22.42;;
19877;SDS011;10101;52.204;9.910;2022-08-18T09:26:50;29.40;;;22.10;;
19877;SDS011;10101;52.204;9.910;2022-08-18T09:29:22;28.10;;;22.20;;
19877;SDS011;10101;52.204;9.910;2022-08-18T09:35:02;28.15;;;21.35;;
19877;SDS011;10101;52.204;9.910;2022-08-18T09:37:41;27.45;;;21.40;;
19877;SDS011;10101;52.204;9.910;2022-08-18T09:40:32;28.10;;;22.33;;
19877;SDS011;10101;52.204;9.910;2022-08-18T09:43:22;25.00;;;20.08;;
19877;SDS011;10101;52.204;9.910;2022-08-18T09:45:58;26.23;;;20.67;;
19877;SDS011;10101;52.204;9.910;2022-08-18T09:48:32;26.05;;;19.50;;
19877;SDS011;10101;52.204;9.910;2022-08-18T09:56:56;23.67;;;20.08;;
19877;SDS011;10101;52.204;9.910;2022-08-18T10:05:55;21.70;;;18.23;;
19877;SDS011;10101;52.204;9.910;2022-08-18T10:11:53;20.27;;;16.00;;
19877;SDS011;10101;52.204;9.910;2022-08-18T10:14:47;19.92;;;16.23;;
19877;SDS011;10101;52.204;9.910;2022-08-18T10:17:44;17.98;;;15.15;;
19877;SDS011;10101;52.204;9.910;2022-08-18T10:20:33;18.60;;;15.75;;
19877;SDS011;10101;52.204;9.910;2022-08-18T10:23:07;18.73;;;15.20;;
19877;SDS011;10101;52.204;9.910;2022-08-18T10:25:36;19.13;;;16.80;;
19877;SDS011;10101;52.204;9.910;2022-08-18T10:28:05;17.92;;;14.10;;
19877;SDS011;10101;52.204;9.910;2022-08-18T10:36:34;17.15;;;13.95;;
19877;SDS011;10101;52.204;9.910;2022-08-18T10:39:09;16.08;;;13.50;;
19877;SDS011;10101;52.204;9.910;2022-08-18T10:41:37;16.30;;;14.48;;
19877;SDS011;10101;52.204;9.910;2022-08-18T10:44:15;16.88;;;14.57;;
19877;SDS011;10101;52.204;9.910;2022-08-18T10:46:46;18.85;;;15.52;;
19877;SDS011;10101;52.204;9.910;2022-08-18T10:49:15;17.15;;;15.13;;
19877;SDS011;10101;52.204;9.910;2022-08-18T10:51:51;17.25;;;14.30;;
19877;SDS011;10101;52.204;9.910;2022-08-18T10:54:36;19.50;;;15.32;;
19877;SDS011;10101;52.204;9.910;2022-08-18T10:57:19;18.55;;;15.27;;
19877;SDS011;10101;52.204;9.910;2022-08-18T10:59:56;17.20;;;13.45;;
19877;SDS011;10101;52.204;9.910;2022-08-18T11:02:42;14.77;;;12.18;;
19877;SDS011;10101;52.204;9.910;2022-08-18T11:05:21;17.17;;;12.93;;
19877;SDS011;10101;52.204;9.910;2022-08-18T11:07:52;17.27;;;13.43;;
19877;SDS011;10101;52.204;9.910;2022-08-18T11:10:33;12.20;;;10.38;;
19877;SDS011;10101;52.204;9.910;2022-08-18T11:13:04;14.27;;;11.00;;
19877;SDS011;10101;52.204;9.910;2022-08-18T11:15:41;14.43;;;12.10;;
19877;SDS011;10101;52.204;9.910;2022-08-18T11:18:22;16.75;;;13.90;;
19877;SDS011;10101;52.204;9.910;2022-08-18T11:24:02;13.80;;;11.40;;
19877;SDS011;10101;52.204;9.910;2022-08-18T11:26:33;15.30;;;13.48;;
19877;SDS011;10101;52.204;9.910;2022-08-18T11:29:15;13.35;;;11.90;;
19877;SDS011;10101;52.204;9.910;2022-08-18T11:31:42;16.60;;;14.02;;
19877;SDS011;10101;52.204;9.910;2022-08-18T11:34:11;14.70;;;12.75;;
19877;SDS011;10101;52.204;9.910;2022-08-18T11:36:42;13.15;;;11.68;;
19877;SDS011;10101;52.204;9.910;2022-08-18T11:39:10;16.17;;;13.10;;
19877;SDS011;10101;52.204;9.910;2022-08-18T11:41:38;14.55;;;12.45;;
19877;SDS011;10101;52.204;9.910;2022-08-18T11:44:14;14.68;;;12.48;;
19877;SDS011;10101;52.204;9.910;2022-08-18T11:46:45;16.15;;;13.88;;
19877;SDS011;10101;52.204;9.910;2022-08-18T11:49:14;15.68;;;11.68;;
19877;SDS011;10101;52.204;9.910;2022-08-18T11:51:53;14.75;;;11.90;;
19877;SDS011;10101;52.204;9.910;2022-08-18T11:54:30;12.35;;;11.05;;
19877;SDS011;10101;52.204;9.910;2022-08-18T11:59:56;12.73;;;10.57;;
19877;SDS011;10101;52.204;9.910;2022-08-18T12:02:24;12.88;;;9.82;;
19877;SDS011;10101;52.204;9.910;2022-08-18T12:04:53;12.63;;;9.52;;
19877;SDS011;10101;52.204;9.910;2022-08-18T12:07:26;15.30;;;12.80;;
19877;SDS011;10101;52.204;9.910;2022-08-18T12:12:45;12.65;;;11.07;;
19877;SDS011;10101;52.204;9.910;2022-08-18T12:15:27;13.32;;;10.40;;
19877;SDS011;10101;52.204;9.910;2022-08-18T12:17:55;12.75;;;10.35;;
19877;SDS011;10101;52.204;9.910;2022-08-18T12:20:22;10.82;;;9.40;;
19877;SDS011;10101;52.204;9.910;2022-08-18T12:22:49;12.95;;;9.93;;
19877;SDS011;10101;52.204;9.910;2022-08-18T12:25:19;9.90;;;8.90;;
19877;SDS011;10101;52.204;9.910;2022-08-18T12:27:46;10.27;;;8.48;;
19877;SDS011;10101;52.204;9.910;2022-08-18T12:30:13;12.68;;;11.32;;
19877;SDS011;10101;52.204;9.910;2022-08-18T12:32:40;11.38;;;10.20;;
19877;SDS011;10101;52.204;9.910;2022-08-18T12:35:07;11.30;;;8.90;;
19877;SDS011;10101;52.204;9.910;2022-08-18T12:37:36;9.88;;;8.88;;
19877;SDS011;10101;52.204;9.910;2022-08-18T12:40:06;13.23;;;11.32;;
19877;SDS011;10101;52.204;9.910;2022-08-18T12:42:35;11.20;;;10.00;;
19877;SDS011;10101;52.204;9.910;2022-08-18T12:45:02;13.32;;;10.80;;
19877;SDS011;10101;52.204;9.910;2022-08-18T12:47:31;11.80;;;9.20;;
19877;SDS011;10101;52.204;9.910;2022-08-18T12:49:58;12.20;;;10.52;;
19877;SDS011;10101;52.204;9.910;2022-08-18T12:52:24;11.32;;;10.00;;
19877;SDS011;10101;52.204;9.910;2022-08-18T12:54:51;12.43;;;10.50;;
19877;SDS011;10101;52.204;9.910;2022-08-18T12:57:18;11.40;;;10.18;;
19877;SDS011;10101;52.204;9.910;2022-08-18T12:59:48;14.05;;;11.20;;
19877;SDS011;10101;52.204;9.910;2022-08-18T13:02:14;13.52;;;11.80;;
19877;SDS011;10101;52.204;9.910;2022-08-18T13:04:41;9.35;;;8.43;;
19877;SDS011;10101;52.204;9.910;2022-08-18T13:07:09;8.98;;;8.07;;
19877;SDS011;10101;52.204;9.910;2022-08-18T13:09:38;9.88;;;8.50;;
19877;SDS011;10101;52.204;9.910;2022-08-18T13:12:05;8.48;;;7.50;;
19877;SDS011;10101;52.204;9.910;2022-08-18T13:14:33;8.38;;;7.28;;
19877;SDS011;10101;52.204;9.910;2022-08-18T13:17:02;8.93;;;8.02;;
19877;SDS011;10101;52.204;9.910;2022-08-18T13:19:29;8.73;;;7.80;;
19877;SDS011;10101;52.204;9.910;2022-08-18T13:21:56;9.05;;;7.72;;
19877;SDS011;10101;52.204;9.910;2022-08-18T13:24:23;8.60;;;7.13;;
19877;SDS011;10101;52.204;9.910;2022-08-18T13:26:50;7.82;;;7.13;;
19877;SDS011;10101;52.204;9.910;2022-08-18T13:29:17;9.35;;;7.07;;
19877;SDS011;10101;52.204;9.910;2022-08-18T13:31:45;9.95;;;7.70;;
19877;SDS011;10101;52.204;9.910;2022-08-18T13:34:13;9.02;;;8.13;;
19877;SDS011;10101;52.204;9.910;2022-08-18T13:36:40;7.30;;;6.60;;
19877;SDS011;10101;52.204;9.910;2022-08-18T13:39:10;9.55;;;7.85;;
19877;SDS011;10101;52.204;9.910;2022-08-18T13:41:37;9.15;;;8.13;;
19877;SDS011;10101;52.204;9.910;2022-08-18T13:44:06;8.10;;;7.32;;
19877;SDS011;10101;52.204;9.910;2022-08-18T13:46:33;7.25;;;6.50;;
19877;SDS011;10101;52.204;9.910;2022-08-18T13:49:02;7.18;;;6.47;;
19877;SDS011;10101;52.204;9.910;2022-08-18T13:51:30;8.30;;;6.88;;
19877;SDS011;10101;52.204;9.910;2022-08-18T13:53:57;7.47;;;6.50;;
19877;SDS011;10101;52.204;9.910;2022-08-18T13:56:24;7.03;;;6.32;;
19877;SDS011;10101;52.204;9.910;2022-08-18T13:58:51;7.10;;;6.40;;
19877;SDS011;10101;52.204;9.910;2022-08-18T14:01:18;10.48;;;6.93;;
19877;SDS011;10101;52.204;9.910;2022-08-18T14:03:44;8.20;;;6.85;;
19877;SDS011;10101;52.204;9.910;2022-08-18T14:06:12;8.48;;;6.38;;
19877;SDS011;10101;52.204;9.910;2022-08-18T14:08:40;8.00;;;7.20;;
19877;SDS011;10101;52.204;9.910;2022-08-18T14:11:08;8.50;;;6.90;;
19877;SDS011;10101;52.204;9.910;2022-08-18T14:13:34;7.53;;;6.82;;
19877;SDS011;10101;52.204;9.910;2022-08-18T14:16:02;9.48;;;7.75;;
19877;SDS011;10101;52.204;9.910;2022-08-18T14:18:29;9.63;;;7.05;;
19877;SDS011;10101;52.204;9.910;2022-08-18T14:20:55;7.97;;;7.10;;
19877;SDS011;10101;52.204;9.910;2022-08-18T14:23:41;7.18;;;6.50;;
19877;SDS011;10101;52.204;9.910;2022-08-18T14:26:26;7.22;;;6.53;;
19877;SDS011;10101;52.204;9.910;2022-08-18T14:29:10;8.13;;;7.25;;
19877;SDS011;10101;52.204;9.910;2022-08-18T14:31:37;7.38;;;6.60;;
19877;SDS011;10101;52.204;9.910;2022-08-18T14:34:04;6.95;;;6.28;;
19877;SDS011;10101;52.204;9.910;2022-08-18T14:36:31;10.20;;;7.13;;
19877;SDS011;10101;52.204;9.910;2022-08-18T14:39:00;9.57;;;7.38;;
19877;SDS011;10101;52.204;9.910;2022-08-18T14:41:28;7.90;;;7.07;;
19877;SDS011;10101;52.204;9.910;2022-08-18T14:43:56;11.60;;;7.68;;
19877;SDS011;10101;52.204;9.910;2022-08-18T14:46:25;9.82;;;7.85;;
19877;SDS011;10101;52.204;9.910;2022-08-18T14:48:52;9.43;;;7.30;;
19877;SDS011;10101;52.204;9.910;2022-08-18T14:51:18;8.70;;;7.72;;
19877;SDS011;10101;52.204;9.910;2022-08-18T14:53:46;8.50;;;7.68;;
19877;SDS011;10101;52.204;9.910;2022-08-18T14:56:14;8.38;;;7.28;;
19877;SDS011;10101;52.204;9.910;2022-08-18T14:58:40;9.10;;;7.50;;
19877;SDS011;10101;52.204;9.910;2022-08-18T15:01:07;11.30;;;8.00;;
19877;SDS011;10101;52.204;9.910;2022-08-18T15:03:37;10.30;;;7.90;;
19877;SDS011;10101;52.204;9.910;2022-08-18T15:06:04;10.10;;;8.48;;
19877;SDS011;10101;52.204;9.910;2022-08-18T15:08:33;9.55;;;7.72;;
19877;SDS011;10101;52.204;9.910;2022-08-18T15:11:01;8.02;;;7.22;;
19877;SDS011;10101;52.204;9.910;2022-08-18T15:13:31;8.02;;;7.22;;
19877;SDS011;10101;52.204;9.910;2022-08-18T15:15:59;8.40;;;6.78;;
19877;SDS011;10101;52.204;9.910;2022-08-18T15:18:25;8.15;;;7.32;;
19877;SDS011;10101;52.204;9.910;2022-08-18T15:20:53;7.05;;;6.35;;
19877;SDS011;10101;52.204;9.910;2022-08-18T15:23:38;8.75;;;6.43;;
19877;SDS011;10101;52.204;9.910;2022-08-18T15:26:23;6.60;;;5.97;;